Time;durP1;ratioP1;P1;durP2;ratioP2;P2;SDS_P1;SDS_P2;PMS_P1;PMS_P2;Temp;Humidity;BMP_temperature;BMP_pressure;BME280_temperature;BME280_humidity;BME280_pressure;Samples;Min_cycle;Max_cycle;Signal;HPM_P1;HPM_P2
2022/11/10 00:01:35;;;;;;;;;;;;;;;9.48;93.21;101652.25;5046954;28;20300;-61
2022/11/10 00:04:00;;;;;;;;;;;;;;;9.48;93.46;101646.94;5048653;28;20016;-60
2022/11/10 00:06:25;;;;;;;;;;;;;;;9.47;93.13;101650.56;5048309;28;20115;-60
2022/11/10 00:08:51;;;;;;;;;;;;;;;9.45;93.35;101650.72;5045525;28;20126;-59
2022/11/10 00:11:16;;;;;;;;;;;;;;;9.46;93.55;101655.03;5046857;28;19921;-60
2022/11/10 00:19:09;;;;;;;;;;;;;;;9.45;93.57;101642.75;5046998;28;19923;-59
2022/11/10 00:21:35;;;;;;;;;;;;;;;9.42;93.87;101642.22;5046361;28;19917;-58
2022/11/10 00:24:02;;;;;;;;;;;;;;;9.38;93.42;101635.53;5043506;28;20388;-60
2022/11/10 00:26:27;;;;;;;;;;;;;;;9.36;93.81;101648.94;5048708;28;20417;-58
2022/11/10 00:28:54;;;;;;;;;;;;;;;9.35;94.05;101663.16;5047631;28;19912;-60
2022/11/10 00:31:19;;;;;;;;;;;;;;;9.34;93.98;101668.63;5044652;28;19917;-60
2022/11/10 00:33:44;;;;;;;;;;;;;;;9.32;94.22;101666.09;5047632;28;19921;-60
2022/11/10 00:36:10;;;;;;;;;;;;;;;9.32;94.26;101674.91;5053155;28;20239;-59
2022/11/10 00:38:35;;;;;;;;;;;;;;;9.32;94.04;101682.00;5050287;28;20445;-58
2022/11/10 00:41:00;;;;;;;;;;;;;;;9.32;94.25;101676.72;5048704;28;19917;-60
2022/11/10 00:43:26;;;;;;;;;;;;;;;9.30;94.32;101681.31;5044558;28;19931;-59
2022/11/10 00:45:51;;;;;;;;;;;;;;;9.29;94.59;101682.31;5050098;28;20362;-60
2022/11/10 00:48:16;;;;;;;;;;;;;;;9.27;94.39;101678.97;5049170;28;20004;-60
2022/11/10 00:50:41;;;;;;;;;;;;;;;9.24;94.63;101677.41;5042370;28;19917;-58
2022/11/10 00:53:07;;;;;;;;;;;;;;;9.22;94.74;101687.31;5044341;28;19971;-59
2022/11/10 00:55:32;;;;;;;;;;;;;;;9.22;94.97;101689.13;5044869;28;19921;-60
2022/11/10 00:57:57;;;;;;;;;;;;;;;9.19;94.52;101681.44;5045986;28;20543;-60
2022/11/10 01:00:22;;;;;;;;;;;;;;;9.18;95.03;101683.25;5044217;28;19927;-59
2022/11/10 01:02:47;;;;;;;;;;;;;;;9.17;94.82;101683.41;5046846;28;19959;-59
2022/11/10 01:05:13;;;;;;;;;;;;;;;9.15;95.02;101685.38;5044722;28;20308;-60
2022/11/10 01:07:38;;;;;;;;;;;;;;;9.15;95.25;101688.00;5046694;28;20003;-60
2022/11/10 01:10:03;;;;;;;;;;;;;;;9.16;95.41;101687.03;5041455;28;19927;-60
2022/11/10 01:12:29;;;;;;;;;;;;;;;9.14;94.99;101689.81;5046507;28;20012;-60
2022/11/10 01:14:55;;;;;;;;;;;;;;;9.12;95.22;101691.78;5041572;28;19964;-60
2022/11/10 01:17:20;;;;;;;;;;;;;;;9.11;95.54;101695.41;5045938;28;20075;-58
2022/11/10 01:19:45;;;;;;;;;;;;;;;9.12;95.72;101705.03;5046061;28;19921;-59
2022/11/10 01:22:10;;;;;;;;;;;;;;;9.10;95.48;101712.28;5046922;28;19963;-58
2022/11/10 01:24:35;;;;;;;;;;;;;;;9.10;95.27;101716.75;5045796;28;19921;-60
2022/11/10 01:27:00;;;;;;;;;;;;;;;9.10;95.84;101722.88;5042972;28;19956;-61
2022/11/10 01:29:26;;;;;;;;;;;;;;;9.09;95.79;101717.72;5043337;28;19932;-60
2022/11/10 01:31:51;;;;;;;;;;;;;;;9.07;95.58;101727.63;5045874;28;19924;-59
2022/11/10 01:34:16;;;;;;;;;;;;;;;9.05;95.53;101727.78;5045608;28;20039;-60
2022/11/10 01:36:41;;;;;;;;;;;;;;;9.06;95.46;101731.25;5041472;28;19921;-58
2022/11/10 01:39:06;;;;;;;;;;;;;;;9.06;95.68;101733.91;5047416;28;20029;-61
2022/11/10 01:41:31;;;;;;;;;;;;;;;9.03;95.47;101723.59;5043822;28;19920;-59
2022/11/10 01:44:32;;;;;;;;;;;;;;;9.00;95.48;101724.72;5041444;28;20010;-60
2022/11/10 01:46:57;;;;;;;;;;;;;;;8.98;95.85;101721.34;5006168;28;20037;-58
2022/11/10 01:49:24;;;;;;;;;;;;;;;8.95;95.65;101733.03;5026311;28;20011;-60
2022/11/10 01:51:52;;;;;;;;;;;;;;;8.94;95.86;101727.88;5043773;28;19917;-59
2022/11/10 01:54:19;;;;;;;;;;;;;;;8.91;95.98;101729.00;5047831;28;20303;-58
2022/11/10 01:56:47;;;;;;;;;;;;;;;8.93;95.94;101727.03;5045504;28;19921;-60
2022/11/10 01:59:14;;;;;;;;;;;;;;;8.95;95.99;101729.56;5046758;28;20004;-60
2022/11/10 02:01:39;;;;;;;;;;;;;;;8.93;95.96;101726.22;5048034;28;20293;-59
2022/11/10 02:04:06;;;;;;;;;;;;;;;8.92;96.04;101725.38;5046976;28;19920;-59
2022/11/10 02:06:39;;;;;;;;;;;;;;;8.89;96.12;101727.47;5047568;28;19939;-61
2022/11/10 02:09:04;;;;;;;;;;;;;;;8.87;95.99;101732.06;5046407;28;19963;-60
2022/11/10 02:11:30;;;;;;;;;;;;;;;8.87;96.31;101732.06;5044362;28;19956;-57
2022/11/10 02:13:56;;;;;;;;;;;;;;;8.85;96.12;101729.56;5040489;28;19966;-58
2022/11/10 02:16:21;;;;;;;;;;;;;;;8.85;96.32;101734.00;5043125;28;19960;-60
2022/11/10 02:18:47;;;;;;;;;;;;;;;8.85;96.54;101744.59;5045496;28;20078;-60
2022/11/10 02:21:15;;;;;;;;;;;;;;;8.84;96.65;101742.94;5042683;28;19921;-59
2022/11/10 02:23:50;;;;;;;;;;;;;;;8.82;96.34;101751.03;5053541;28;19921;-59
2022/11/10 02:26:25;;;;;;;;;;;;;;;8.81;96.62;101749.34;5041561;28;19916;-60
2022/11/10 02:28:51;;;;;;;;;;;;;;;8.82;96.84;101760.78;5052503;28;19940;-59
2022/11/10 02:31:16;;;;;;;;;;;;;;;8.82;96.90;101761.63;5045378;28;19939;-60
2022/11/10 02:33:41;;;;;;;;;;;;;;;8.85;96.67;101766.63;5049528;28;19916;-60
2022/11/10 02:36:07;;;;;;;;;;;;;;;8.86;96.95;101773.59;5048115;28;20035;-58
2022/11/10 02:38:33;;;;;;;;;;;;;;;8.86;96.83;101784.19;5050954;28;19995;-59
2022/11/10 02:40:58;;;;;;;;;;;;;;;8.85;96.75;101784.34;5044895;28;19920;-58
2022/11/10 02:43:23;;;;;;;;;;;;;;;8.87;96.73;101785.88;5048458;28;19925;-60
2022/11/10 02:45:48;;;;;;;;;;;;;;;8.88;96.55;101779.59;5052870;28;19931;-59
2022/11/10 02:48:14;;;;;;;;;;;;;;;8.87;96.83;101775.28;5051146;28;19924;-59
2022/11/10 02:50:39;;;;;;;;;;;;;;;8.87;96.83;101790.34;5044449;28;20254;-58
2022/11/10 02:53:05;;;;;;;;;;;;;;;8.85;96.64;101782.53;5046939;28;20316;-60
2022/11/10 02:55:31;;;;;;;;;;;;;;;8.81;96.48;101781.13;5049228;28;20004;-60
2022/11/10 02:57:56;;;;;;;;;;;;;;;8.79;96.65;101776.94;5051122;28;19913;-60
2022/11/10 03:00:21;;;;;;;;;;;;;;;8.78;96.57;101786.69;5049208;28;19924;-58
2022/11/10 03:02:46;;;;;;;;;;;;;;;8.75;96.61;101786.13;5051615;28;19917;-60
2022/11/10 03:05:11;;;;;;;;;;;;;;;8.74;96.42;101790.59;5049773;28;20273;-59
2022/11/10 03:07:37;;;;;;;;;;;;;;;8.72;96.71;101797.00;5049515;28;19924;-60
2022/11/10 03:10:02;;;;;;;;;;;;;;;8.69;96.55;101792.81;5048764;28;19912;-60
2022/11/10 03:12:27;;;;;;;;;;;;;;;8.66;96.65;101795.72;5051280;28;19917;-58
2022/11/10 03:14:52;;;;;;;;;;;;;;;8.66;96.68;101799.19;5049516;28;19919;-60
2022/11/10 03:17:18;;;;;;;;;;;;;;;8.65;96.91;101794.03;5045737;28;19917;-60
2022/11/10 03:19:43;;;;;;;;;;;;;;;8.64;96.92;101802.94;5049058;28;19913;-58
2022/11/10 03:22:08;;;;;;;;;;;;;;;8.61;96.82;101806.72;5042392;28;19920;-60
2022/11/10 03:24:33;;;;;;;;;;;;;;;8.59;96.89;101815.75;5049900;28;19927;-60
2022/11/10 03:26:58;;;;;;;;;;;;;;;8.58;97.05;101814.09;5050742;28;20004;-60
2022/11/10 03:29:24;;;;;;;;;;;;;;;8.59;96.96;101821.91;5048455;28;19982;-58
2022/11/10 03:31:49;;;;;;;;;;;;;;;8.60;97.12;101823.56;5049848;28;20424;-60
2022/11/10 03:34:14;;;;;;;;;;;;;;;8.61;97.18;101824.41;5045204;28;19927;-59
2022/11/10 03:36:39;;;;;;;;;;;;;;;8.62;97.54;101834.03;5050162;28;20518;-59
2022/11/10 03:39:04;;;;;;;;;;;;;;;8.64;97.58;101835.56;5047712;28;20012;-60
2022/11/10 03:41:30;;;;;;;;;;;;;;;8.67;97.60;101832.69;5051213;28;20346;-60
2022/11/10 03:43:55;;;;;;;;;;;;;;;8.66;97.39;101846.84;5052019;28;19964;-61
2022/11/10 03:46:20;;;;;;;;;;;;;;;8.65;97.53;101833.75;5042288;28;19920;-60
2022/11/10 03:48:45;;;;;;;;;;;;;;;8.65;97.75;101852.28;5048682;28;19988;-60
2022/11/10 03:51:10;;;;;;;;;;;;;;;8.63;97.41;101852.44;5049468;28;19960;-60
2022/11/10 03:53:35;;;;;;;;;;;;;;;8.61;97.64;101851.72;5049780;28;19999;-59
2022/11/10 03:56:02;;;;;;;;;;;;;;;8.60;97.28;101855.34;5048985;28;19917;-58
2022/11/10 03:58:27;;;;;;;;;;;;;;;8.59;97.64;101855.47;5051680;28;19928;-59
2022/11/10 04:00:53;;;;;;;;;;;;;;;8.54;97.64;101853.22;5043379;28;19917;-59
2022/11/10 04:03:18;;;;;;;;;;;;;;;8.51;97.52;101853.50;5046311;28;19948;-61
2022/11/10 04:11:11;;;;;;;;;;;;;;;8.46;97.76;101868.09;5048156;28;19927;-58
2022/11/10 04:16:20;;;;;;;;;;;;;;;8.48;98.11;101876.75;5049418;28;19951;-60
2022/11/10 04:18:45;;;;;;;;;;;;;;;8.48;98.25;101879.41;5054260;28;19916;-60
2022/11/10 04:21:11;;;;;;;;;;;;;;;8.47;98.21;101877.72;5045857;28;20452;-58
2022/11/10 04:23:36;;;;;;;;;;;;;;;8.48;98.25;101882.03;5048154;28;19928;-61
2022/11/10 04:28:48;;;;;;;;;;;;;;;8.49;98.17;101900.44;5048454;28;20437;-58
2022/11/10 04:31:13;;;;;;;;;;;;;;;8.47;98.39;101899.75;5046503;28;19917;-58
2022/11/10 04:33:40;;;;;;;;;;;;;;;8.49;98.09;101911.03;5051538;28;20062;-60
2022/11/10 04:36:05;;;;;;;;;;;;;;;8.51;98.02;101921.50;5047491;28;19921;-60
2022/11/10 04:38:31;;;;;;;;;;;;;;;8.50;98.33;101919.81;5049492;28;19920;-60
2022/11/10 04:40:56;;;;;;;;;;;;;;;8.49;98.45;101923.44;5043241;28;20389;-59
2022/11/10 04:43:21;;;;;;;;;;;;;;;8.47;98.22;101928.03;5048935;28;20510;-60
2022/11/10 04:45:47;;;;;;;;;;;;;;;8.47;97.96;101933.31;5048762;28;19924;-60
2022/11/10 04:48:12;;;;;;;;;;;;;;;8.44;98.22;101941.50;5051842;28;19916;-60
2022/11/10 04:50:37;;;;;;;;;;;;;;;8.45;98.58;101940.53;5033655;28;19916;-60
2022/11/10 04:53:02;;;;;;;;;;;;;;;8.44;98.33;101944.16;5047653;28;20423;-61
2022/11/10 04:55:27;;;;;;;;;;;;;;;8.42;98.13;101943.47;5048401;28;20003;-58
2022/11/10 04:57:53;;;;;;;;;;;;;;;8.41;98.45;101947.06;5046653;28;19916;-60
2022/11/10 05:00:18;;;;;;;;;;;;;;;8.39;98.18;101949.84;5047038;28;19982;-60
2022/11/10 05:02:43;;;;;;;;;;;;;;;8.38;98.45;101945.50;5050244;28;19916;-59
2022/11/10 05:05:09;;;;;;;;;;;;;;;8.36;98.27;101950.91;5043779;28;19920;-60
2022/11/10 05:07:34;;;;;;;;;;;;;;;8.35;98.09;101956.34;5044889;28;19925;-59
2022/11/10 05:09:59;;;;;;;;;;;;;;;8.29;98.59;101949.72;5042594;28;19932;-61
2022/11/10 05:12:24;;;;;;;;;;;;;;;8.34;98.24;101960.78;5046940;28;19921;-59
2022/11/10 05:14:49;;;;;;;;;;;;;;;8.33;98.35;101956.47;5044794;28;19936;-60
2022/11/10 05:17:14;;;;;;;;;;;;;;;8.32;98.39;101954.75;5048946;28;19924;-59
2022/11/10 05:19:40;;;;;;;;;;;;;;;8.33;98.61;101958.25;5045704;28;19971;-60
2022/11/10 05:22:06;;;;;;;;;;;;;;;8.31;98.46;101957.53;5047443;28;20003;-59
2022/11/10 05:24:31;;;;;;;;;;;;;;;8.28;98.76;101953.34;5050539;28;19928;-58
2022/11/10 05:26:56;;;;;;;;;;;;;;;8.29;98.77;101946.25;5047899;28;19917;-59
2022/11/10 05:29:22;;;;;;;;;;;;;;;8.27;98.91;101956.97;5038910;28;19921;-58
2022/11/10 05:31:47;;;;;;;;;;;;;;;8.26;99.11;101957.94;5049475;28;19925;-58
2022/11/10 05:34:13;;;;;;;;;;;;;;;8.25;98.84;101963.34;5048099;28;20024;-62
2022/11/10 05:36:38;;;;;;;;;;;;;;;8.27;98.82;101964.06;5048931;28;19920;-60
2022/11/10 05:39:04;;;;;;;;;;;;;;;8.27;99.33;101974.66;5045037;28;20387;-60
2022/11/10 05:41:29;;;;;;;;;;;;;;;8.26;99.35;101965.88;5047942;28;20292;-60
2022/11/10 05:43:54;;;;;;;;;;;;;;;8.27;99.25;101977.28;5045122;28;19933;-61
2022/11/10 05:46:19;;;;;;;;;;;;;;;8.24;99.04;101972.25;5046505;28;19916;-60
2022/11/10 05:48:45;;;;;;;;;;;;;;;8.24;99.24;101982.84;5042279;28;20042;-60
2022/11/10 05:51:10;;;;;;;;;;;;;;;8.22;99.36;101982.13;5046166;28;20019;-60
2022/11/10 05:53:35;;;;;;;;;;;;;;;8.19;99.28;101977.94;5043794;28;20041;-61
2022/11/10 05:56:01;;;;;;;;;;;;;;;8.21;99.28;101986.59;5046421;28;20553;-59
2022/11/10 05:58:26;;;;;;;;;;;;;;;8.20;99.54;101990.19;5043644;28;19936;-60
2022/11/10 06:00:51;;;;;;;;;;;;;;;8.19;99.54;101991.16;5042163;28;20337;-59
2022/11/10 06:03:17;;;;;;;;;;;;;;;8.20;99.39;101990.19;5044113;28;20385;-60
2022/11/10 06:05:42;;;;;;;;;;;;;;;8.21;99.30;101999.81;5045968;28;20406;-59
2022/11/10 06:08:08;;;;;;;;;;;;;;;8.21;99.67;101999.81;5046168;28;19917;-59
2022/11/10 06:10:34;;;;;;;;;;;;;;;8.20;99.70;102007.88;5047771;28;19928;-58
2022/11/10 06:12:59;;;;;;;;;;;;;;;8.21;99.63;102010.41;5047581;28;20003;-58
2022/11/10 06:15:24;;;;;;;;;;;;;;;8.19;99.54;102004.41;5048007;28;20387;-60
2022/11/10 06:17:50;;;;;;;;;;;;;;;8.17;99.21;102008.13;5048162;28;19951;-59
2022/11/10 06:20:16;;;;;;;;;;;;;;;8.18;99.60;102007.16;5046557;28;19923;-59
2022/11/10 06:22:41;;;;;;;;;;;;;;;8.17;99.54;102018.72;5049545;28;19917;-59
2022/11/10 06:25:07;;;;;;;;;;;;;;;8.16;99.45;102007.28;5048798;28;19921;-60
2022/11/10 06:27:32;;;;;;;;;;;;;;;8.15;99.56;102018.84;5050344;28;19924;-59
2022/11/10 06:29:57;;;;;;;;;;;;;;;8.17;99.42;102026.66;5049937;28;20558;-58
2022/11/10 06:32:23;;;;;;;;;;;;;;;8.16;99.89;102025.81;5049514;28;19920;-59
2022/11/10 06:34:48;;;;;;;;;;;;;;;8.16;99.96;102038.22;5049344;28;19920;-60
2022/11/10 06:37:13;;;;;;;;;;;;;;;8.15;99.92;102039.19;5051675;28;19920;-60
2022/11/10 06:39:38;;;;;;;;;;;;;;;8.16;100.00;102044.34;5048371;28;20268;-58
2022/11/10 06:42:04;;;;;;;;;;;;;;;8.17;99.85;102045.19;5050308;28;19917;-60
2022/11/10 06:44:29;;;;;;;;;;;;;;;8.15;100.00;102055.91;5053379;28;20011;-59
2022/11/10 06:46:54;;;;;;;;;;;;;;;8.16;100.00;102065.50;5052035;28;20338;-59
2022/11/10 06:49:19;;;;;;;;;;;;;;;8.16;100.00;102069.97;5049564;28;20330;-60
2022/11/10 06:51:44;;;;;;;;;;;;;;;8.15;99.85;102068.28;5050335;28;20003;-60
2022/11/10 06:54:09;;;;;;;;;;;;;;;8.10;99.78;102070.47;5049208;28;20369;-59
2022/11/10 06:56:35;;;;;;;;;;;;;;;8.16;99.86;102078.75;5047933;28;20008;-56
2022/11/10 06:59:00;;;;;;;;;;;;;;;8.16;100.00;102076.09;5046946;28;19990;-59
2022/11/10 07:01:25;;;;;;;;;;;;;;;8.16;100.00;102081.38;5047074;28;20481;-59
2022/11/10 07:03:53;;;;;;;;;;;;;;;8.16;100.00;102077.91;5045381;28;20003;-60
2022/11/10 07:06:19;;;;;;;;;;;;;;;8.16;99.90;102077.91;5044312;28;19921;-59
2022/11/10 07:08:44;;;;;;;;;;;;;;;8.16;100.00;102086.69;5048751;28;19924;-59
2022/11/10 07:11:10;;;;;;;;;;;;;;;8.16;100.00;102088.47;5045958;28;20257;-59
2022/11/10 07:13:35;;;;;;;;;;;;;;;8.17;100.00;102103.38;5047006;28;20308;-59
2022/11/10 07:16:04;;;;;;;;;;;;;;;8.17;100.00;102114.81;5048091;28;20047;-59
2022/11/10 07:18:29;;;;;;;;;;;;;;;8.18;100.00;102115.66;5048762;28;19916;-58
2022/11/10 07:20:54;;;;;;;;;;;;;;;8.18;100.00;102121.78;5045466;28;19979;-59
2022/11/10 07:23:19;;;;;;;;;;;;;;;8.20;100.00;102119.03;5044298;28;19921;-57
2022/11/10 07:25:44;;;;;;;;;;;;;;;8.22;100.00;102125.88;5059573;28;19917;-60
2022/11/10 07:28:10;;;;;;;;;;;;;;;8.23;100.00;102138.13;5049152;28;19966;-58
2022/11/10 07:30:35;;;;;;;;;;;;;;;8.25;99.98;102144.16;5045452;28;20412;-59
2022/11/10 07:33:01;;;;;;;;;;;;;;;8.27;100.00;102154.59;5050278;28;19919;-60
2022/11/10 07:35:27;;;;;;;;;;;;;;;8.29;100.00;102144.72;5051184;28;19919;-60
2022/11/10 07:37:56;;;;;;;;;;;;;;;8.31;100.00;102141.00;5042985;28;19917;-60
2022/11/10 07:40:22;;;;;;;;;;;;;;;8.33;100.00;102132.94;5048170;28;19919;-58
2022/11/10 07:42:47;;;;;;;;;;;;;;;8.36;100.00;102146.78;5051887;28;19913;-58
2022/11/10 07:45:12;;;;;;;;;;;;;;;8.40;100.00;102131.53;5044704;28;19921;-58
2022/11/10 07:47:37;;;;;;;;;;;;;;;8.45;100.00;102139.09;5048495;28;19971;-59
2022/11/10 07:50:02;;;;;;;;;;;;;;;8.48;100.00;102139.66;5046131;28;19928;-60
2022/11/10 07:52:28;;;;;;;;;;;;;;;8.53;99.95;102137.47;5055373;28;19925;-58
2022/11/10 07:54:53;;;;;;;;;;;;;;;8.55;99.95;102132.91;5053629;28;19964;-59
2022/11/10 07:57:18;;;;;;;;;;;;;;;8.60;100.00;102143.09;5046513;28;19928;-60
2022/11/10 07:59:43;;;;;;;;;;;;;;;8.65;99.87;102148.88;5049792;28;20385;-59
2022/11/10 08:02:11;;;;;;;;;;;;;;;8.69;99.36;102159.09;5057702;28;19916;-59
2022/11/10 08:04:37;;;;;;;;;;;;;;;8.73;99.31;102150.91;5052290;28;19923;-59
2022/11/10 08:07:02;;;;;;;;;;;;;;;8.78;99.49;102162.78;5050488;28;19913;-58
2022/11/10 08:09:27;;;;;;;;;;;;;;;8.83;99.39;102170.34;5047267;28;20003;-60
2022/11/10 08:11:52;;;;;;;;;;;;;;;8.87;99.09;102177.91;5047490;28;19920;-57
2022/11/10 08:14:17;;;;;;;;;;;;;;;8.92;98.86;102186.31;5044749;28;20483;-60
2022/11/10 08:16:43;;;;;;;;;;;;;;;8.96;99.03;102190.44;5044199;28;19921;-60
2022/11/10 08:19:08;;;;;;;;;;;;;;;9.00;98.57;102183.91;5041150;28;19920;-60
2022/11/10 08:21:33;;;;;;;;;;;;;;;9.05;98.49;102187.97;5049109;28;19923;-59
2022/11/10 08:23:58;;;;;;;;;;;;;;;9.09;98.31;102182.28;5048620;28;19921;-58
2022/11/10 08:26:23;;;;;;;;;;;;;;;9.14;98.36;102192.50;5042908;28;19921;-60
2022/11/10 08:28:49;;;;;;;;;;;;;;;9.17;98.17;102190.44;5041140;28;21122;-60
2022/11/10 08:31:14;;;;;;;;;;;;;;;9.22;98.07;102203.28;5038345;28;20330;-57
2022/11/10 08:33:39;;;;;;;;;;;;;;;9.25;97.98;102192.44;5049133;28;19916;-58
2022/11/10 08:36:04;;;;;;;;;;;;;;;9.27;97.71;102194.00;5044539;28;19921;-60
2022/11/10 08:38:29;;;;;;;;;;;;;;;9.31;97.54;102198.09;5044885;28;20426;-58
2022/11/10 08:40:56;;;;;;;;;;;;;;;9.35;97.16;102197.81;5044101;28;19925;-58
2022/11/10 08:43:21;;;;;;;;;;;;;;;9.37;97.19;102209.13;5043704;28;19928;-59
2022/11/10 08:45:46;;;;;;;;;;;;;;;9.42;97.17;102214.88;5042107;28;19917;-58
2022/11/10 08:48:12;;;;;;;;;;;;;;;9.48;96.99;102214.38;5047890;28;19952;-59
2022/11/10 08:50:38;;;;;;;;;;;;;;;9.53;96.91;102217.47;5050712;28;19913;-57
2022/11/10 08:53:04;;;;;;;;;;;;;;;9.56;96.78;102215.41;5048825;28;20032;-58
2022/11/10 08:55:29;;;;;;;;;;;;;;;9.60;96.47;102219.50;5049517;28;19921;-57
2022/11/10 08:57:59;;;;;;;;;;;;;;;9.65;96.33;102212.94;5048127;28;19923;-60
2022/11/10 09:00:25;;;;;;;;;;;;;;;9.69;96.40;102228.47;5049616;28;19913;-58
2022/11/10 09:02:50;;;;;;;;;;;;;;;9.76;96.14;102224.31;5050044;28;19918;-59
2022/11/10 09:05:15;;;;;;;;;;;;;;;9.80;95.82;102230.19;5045115;28;19917;-57
2022/11/10 09:07:41;;;;;;;;;;;;;;;9.84;95.59;102229.81;5048205;28;19939;-57
2022/11/10 09:10:07;;;;;;;;;;;;;;;9.90;95.76;102236.41;5047964;28;20445;-59
2022/11/10 09:12:32;;;;;;;;;;;;;;;9.96;95.79;102246.47;5047556;28;19913;-59
2022/11/10 09:14:57;;;;;;;;;;;;;;;10.03;95.60;102247.63;5048737;28;20372;-59
2022/11/10 09:17:22;;;;;;;;;;;;;;;10.08;95.45;102244.56;5047885;28;19917;-58
2022/11/10 09:19:47;;;;;;;;;;;;;;;10.11;94.99;102255.75;5043937;28;20451;-58
2022/11/10 09:22:12;;;;;;;;;;;;;;;10.13;94.62;102240.56;5050208;28;19920;-59
2022/11/10 09:24:38;;;;;;;;;;;;;;;10.17;94.54;102247.28;5048312;28;20419;-59
2022/11/10 09:27:03;;;;;;;;;;;;;;;10.22;94.20;102252.22;5048042;28;20432;-58
2022/11/10 09:29:28;;;;;;;;;;;;;;;10.26;94.30;102256.28;5047713;28;20406;-58
2022/11/10 09:31:53;;;;;;;;;;;;;;;10.31;94.28;102251.41;5043013;28;19924;-58
2022/11/10 09:34:18;;;;;;;;;;;;;;;10.37;94.23;102248.22;5048297;28;19913;-59
2022/11/10 09:36:43;;;;;;;;;;;;;;;10.42;93.49;102250.50;5048320;28;19919;-60
2022/11/10 09:39:09;;;;;;;;;;;;;;;10.49;93.62;102254.28;5051931;28;19999;-59
2022/11/10 09:41:38;;;;;;;;;;;;;;;10.54;93.55;102254.72;5050207;28;19920;-58
2022/11/10 09:44:08;;;;;;;;;;;;;;;10.60;93.41;102267.44;5058538;28;19920;-60
2022/11/10 09:46:36;;;;;;;;;;;;;;;10.66;92.92;102255.44;5051700;28;19920;-59
2022/11/10 09:49:20;;;;;;;;;;;;;;;10.68;92.83;102256.97;5054549;28;19960;-61
2022/11/10 09:51:46;;;;;;;;;;;;;;;10.79;92.78;102259.53;5051264;28;19916;-61
2022/11/10 09:54:24;;;;;;;;;;;;;;;10.82;92.42;102248.63;5052395;28;20304;-59
2022/11/10 09:56:52;;;;;;;;;;;;;;;10.90;92.28;102255.06;5044331;28;19919;-59
2022/11/10 09:59:25;;;;;;;;;;;;;;;10.95;92.19;102258.13;5051081;28;19974;-58
2022/11/10 10:01:56;;;;;;;;;;;;;;;11.01;91.43;102260.28;5044268;28;20051;-58
2022/11/10 10:04:40;;;;;;;;;;;;;;;11.07;91.21;102259.72;5052878;28;19943;-58
2022/11/10 10:07:27;;;;;;;;;;;;;;;11.15;91.15;102262.50;5052874;28;19999;-60
2022/11/10 10:09:55;;;;;;;;;;;;;;;11.27;91.04;102269.34;5050983;28;20004;-59
2022/11/10 10:12:22;;;;;;;;;;;;;;;11.33;90.40;102271.47;5043748;28;19951;-59
2022/11/10 10:15:06;;;;;;;;;;;;;;;11.40;90.05;102280.56;5052240;28;19955;-57
2022/11/10 10:17:31;;;;;;;;;;;;;;;11.51;89.91;102297.34;5055577;28;19919;-59
2022/11/10 10:20:15;;;;;;;;;;;;;;;11.60;89.73;102300.03;5052833;28;19913;-60
2022/11/10 10:22:59;;;;;;;;;;;;;;;11.71;89.66;102304.34;5051230;28;19924;-59
2022/11/10 10:25:25;;;;;;;;;;;;;;;11.81;89.25;102299.88;5046573;28;19964;-60
2022/11/10 10:27:58;;;;;;;;;;;;;;;11.87;88.76;102301.13;5052695;28;19927;-58
2022/11/10 10:30:23;;;;;;;;;;;;;;;11.91;87.85;102300.72;5052023;28;19923;-59
2022/11/10 10:32:55;;;;;;;;;;;;;;;11.95;87.82;102314.56;5050882;28;19916;-59
2022/11/10 10:35:21;;;;;;;;;;;;;;;12.00;87.23;102323.78;5051435;28;19912;-58
2022/11/10 10:37:51;;;;;;;;;;;;;;;12.05;87.29;102320.69;5047406;28;20436;-59
2022/11/10 10:40:18;;;;;;;;;;;;;;;12.12;87.32;102334.28;5047049;28;20334;-57
2022/11/10 10:42:43;;;;;;;;;;;;;;;12.20;86.99;102337.06;5048012;28;19914;-60
2022/11/10 10:45:23;;;;;;;;;;;;;;;12.30;86.46;102348.53;5051571;28;19974;-59
2022/11/10 10:47:49;;;;;;;;;;;;;;;12.39;86.37;102340.50;5053038;28;19975;-58
2022/11/10 10:50:31;;;;;;;;;;;;;;;12.49;86.43;102337.81;5049808;28;19917;-60
2022/11/10 10:53:04;;;;;;;;;;;;;;;12.59;85.55;102341.28;5044369;28;19917;-59
2022/11/10 10:55:29;;;;;;;;;;;;;;;12.68;85.30;102339.53;5054329;28;20551;-59
2022/11/10 10:57:59;;;;;;;;;;;;;;;12.75;84.96;102334.47;5055081;28;20015;-58
2022/11/10 11:00:24;;;;;;;;;;;;;;;12.79;84.52;102341.19;5052082;28;19919;-59
2022/11/10 11:03:00;;;;;;;;;;;;;;;12.81;83.97;102331.22;5049546;28;20272;-59
2022/11/10 11:05:25;;;;;;;;;;;;;;;12.84;83.69;102330.91;5044167;28;20388;-58
2022/11/10 11:07:54;;;;;;;;;;;;;;;12.84;83.45;102334.41;5050499;28;19971;-59
2022/11/10 11:10:24;;;;;;;;;;;;;;;12.89;83.63;102331.31;5049234;28;19919;-59
2022/11/10 11:12:49;;;;;;;;;;;;;;;12.94;83.22;102329.03;5048002;28;20555;-58
2022/11/10 11:15:17;;;;;;;;;;;;;;;13.06;82.88;102330.50;5049367;28;19916;-61
2022/11/10 11:17:52;;;;;;;;;;;;;;;13.20;82.84;102334.50;5062157;28;20288;-59
2022/11/10 11:20:17;;;;;;;;;;;;;;;13.30;81.37;102320.13;5045969;28;19916;-59
2022/11/10 11:22:50;;;;;;;;;;;;;;;13.38;81.12;102315.84;5050655;28;20289;-60
2022/11/10 11:25:15;;;;;;;;;;;;;;;13.43;80.33;102321.56;5048401;28;20420;-60
2022/11/10 11:27:43;;;;;;;;;;;;;;;13.45;79.73;102328.41;5051202;28;19913;-59
2022/11/10 11:30:18;;;;;;;;;;;;;;;13.51;79.07;102330.47;5048006;28;19920;-62
2022/11/10 11:33:01;;;;;;;;;;;;;;;13.60;78.77;102339.41;5044898;28;19931;-60
2022/11/10 11:35:32;;;;;;;;;;;;;;;13.77;79.15;102338.53;5053168;28;20284;-59
2022/11/10 11:38:00;;;;;;;;;;;;;;;13.84;78.11;102344.09;5045396;28;20383;-58
2022/11/10 11:40:34;;;;;;;;;;;;;;;13.81;77.92;102336.38;5043561;28;19920;-60
2022/11/10 11:43:09;;;;;;;;;;;;;;;13.76;77.66;102347.53;5053390;28;19924;-59
2022/11/10 11:45:40;;;;;;;;;;;;;;;13.72;77.44;102356.84;5054668;28;20358;-59
2022/11/10 11:48:15;;;;;;;;;;;;;;;13.68;77.00;102357.31;5052656;28;19916;-60
2022/11/10 11:50:50;;;;;;;;;;;;;;;13.72;76.51;102356.00;5044100;28;19955;-57
2022/11/10 11:53:25;;;;;;;;;;;;;;;13.79;76.51;102367.75;5044405;28;20610;-57
2022/11/10 11:56:02;;;;;;;;;;;;;;;13.82;77.01;102373.63;5047241;28;20003;-59
2022/11/10 11:58:32;;;;;;;;;;;;;;;13.91;76.59;102383.41;5053484;28;19920;-57
2022/11/10 12:01:15;;;;;;;;;;;;;;;14.02;76.01;102378.78;5049121;28;19978;-60
2022/11/10 12:03:52;;;;;;;;;;;;;;;14.10;75.54;102392.19;5045805;28;19928;-60
2022/11/10 12:06:20;;;;;;;;;;;;;;;14.20;75.55;102395.63;5048347;28;19912;-59
2022/11/10 12:08:59;;;;;;;;;;;;;;;14.34;75.35;102394.22;5045970;28;19992;-60
2022/11/10 12:11:27;;;;;;;;;;;;;;;14.41;74.81;102395.25;5043065;28;19917;-60
2022/11/10 12:14:11;;;;;;;;;;;;;;;14.51;74.33;102402.22;5049783;28;19923;-59
2022/11/10 12:16:37;;;;;;;;;;;;;;;14.56;73.91;102394.56;5048332;28;19953;-60
2022/11/10 12:19:08;;;;;;;;;;;;;;;14.69;73.63;102388.75;5048908;28;19916;-60
2022/11/10 12:21:42;;;;;;;;;;;;;;;14.83;73.47;102381.97;5041841;28;19927;-60
2022/11/10 12:24:13;;;;;;;;;;;;;;;14.89;72.09;102389.38;5044885;28;20046;-59
2022/11/10 12:26:56;;;;;;;;;;;;;;;14.86;72.06;102384.34;5047402;28;19978;-60
2022/11/10 12:29:26;;;;;;;;;;;;;;;14.89;72.48;102392.03;5048700;28;20401;-59
2022/11/10 12:31:53;;;;;;;;;;;;;;;14.88;72.03;102393.88;5048024;28;19917;-60
2022/11/10 12:34:39;;;;;;;;;;;;;;;14.93;71.59;102396.06;5051229;28;19917;-60
2022/11/10 12:37:06;;;;;;;;;;;;;;;14.97;71.57;102396.56;5048293;28;19920;-60
2022/11/10 12:39:44;;;;;;;;;;;;;;;14.93;71.03;102396.06;5044631;28;20015;-58
2022/11/10 12:42:13;;;;;;;;;;;;;;;14.94;71.10;102407.59;5050659;28;19917;-60
2022/11/10 12:44:42;;;;;;;;;;;;;;;14.92;70.19;102396.22;5047580;28;19921;-60
2022/11/10 12:47:12;;;;;;;;;;;;;;;14.77;69.98;102396.00;5042832;28;19931;-59
2022/11/10 12:49:46;;;;;;;;;;;;;;;14.75;70.55;102398.00;5046870;28;19923;-58
2022/11/10 12:52:18;;;;;;;;;;;;;;;14.79;70.30;102384.16;5045422;28;19925;-59
2022/11/10 12:54:45;;;;;;;;;;;;;;;14.88;70.39;102385.84;5051486;28;19921;-60
2022/11/10 12:57:13;;;;;;;;;;;;;;;15.04;70.60;102398.47;5044931;28;19912;-59
2022/11/10 12:59:40;;;;;;;;;;;;;;;15.24;70.26;102401.69;5047711;28;19979;-59